Time;durP1;ratioP1;P1;durP2;ratioP2;P2;SDS_P1;SDS_P2;PMS_P1;PMS_P2;Temp;Humidity;BMP_temperature;BMP_pressure;BME280_temperature;BME280_humidity;BME280_pressure;Samples;Min_cycle;Max_cycle;Signal;HPM_P1;HPM_P2
2021/10/26 00:02:15;;;;;;;17.30;8.73;;;;;;;10.76;100.00;-19447.22;5079021;28;20085;-70
2021/10/26 00:04:41;;;;;;;17.50;8.93;;;;;;;10.84;100.00;-19449.34;5078411;28;20044;-70
2021/10/26 00:07:07;;;;;;;17.53;8.27;;;;;;;10.83;100.00;-19449.06;5078349;28;20028;-70
2021/10/26 00:09:32;;;;;;;18.77;9.27;;;;;;;10.79;100.00;-19447.88;5075349;28;20032;-70
2021/10/26 00:11:58;;;;;;;16.87;8.40;;;;;;;10.77;100.00;-19447.38;5076084;28;20070;-70
2021/10/26 00:14:25;;;;;;;17.47;8.63;;;;;;;10.79;100.00;-19448.03;5076786;28;20424;-70
2021/10/26 00:16:51;;;;;;;19.67;9.40;;;;;;;10.75;100.00;-19446.97;5078968;28;20047;-70
2021/10/26 00:19:16;;;;;;;18.20;8.93;;;;;;;10.78;100.00;-19447.63;5078108;28;20062;-70
2021/10/26 00:21:43;;;;;;;18.63;8.90;;;;;;;10.79;100.00;-19447.88;5075551;28;20263;-70
2021/10/26 00:24:08;;;;;;;20.63;9.47;;;;;;;10.80;100.00;-19448.28;5077253;28;20105;-70
2021/10/26 00:26:34;;;;;;;21.47;9.03;;;;;;;10.81;100.00;-19448.41;5078630;28;20028;-69
2021/10/26 00:28:59;;;;;;;18.50;9.07;;;;;;;10.76;100.00;-19447.22;5078180;28;20035;-70
2021/10/26 00:31:25;;;;;;;18.23;9.17;;;;;;;10.78;100.00;-19447.63;5078687;28;20273;-70
2021/10/26 00:33:51;;;;;;;18.57;9.37;;;;;;;10.82;100.00;-19448.69;5077430;28;20434;-70
2021/10/26 00:36:21;;;;;;;19.13;9.80;;;;;;;10.76;100.00;-19447.09;5065376;28;20056;-70
2021/10/26 00:38:46;;;;;;;18.63;9.40;;;;;;;10.76;100.00;-19447.09;5078239;28;20055;-70
2021/10/26 00:41:12;;;;;;;20.10;9.13;;;;;;;10.75;100.00;-19446.84;5074026;28;20259;-70
2021/10/26 00:43:41;;;;;;;20.47;9.50;;;;;;;10.72;100.00;-19446.19;5078541;28;20210;-70
2021/10/26 00:46:06;;;;;;;19.67;8.73;;;;;;;10.73;100.00;-19446.31;5077479;28;20271;-70
2021/10/26 00:48:32;;;;;;;17.37;9.17;;;;;;;10.69;100.00;-19445.25;5079029;28;20059;-70
2021/10/26 00:50:58;;;;;;;21.43;9.70;;;;;;;10.69;100.00;-19445.25;5077143;28;20117;-70
2021/10/26 00:53:23;;;;;;;20.63;9.37;;;;;;;10.73;100.00;-19446.31;5076544;28;20138;-70
2021/10/26 00:55:49;;;;;;;20.97;9.87;;;;;;;10.73;100.00;-19446.31;5077652;28;20094;-70
2021/10/26 00:58:15;;;;;;;19.57;9.80;;;;;;;10.68;100.00;-19445.00;5076798;28;20016;-70
2021/10/26 01:00:42;;;;;;;21.07;9.67;;;;;;;10.66;100.00;-19444.59;5077081;28;20063;-70
2021/10/26 01:03:07;;;;;;;19.63;9.47;;;;;;;10.73;100.00;-19446.31;5074844;28;20060;-69
2021/10/26 01:05:33;;;;;;;19.07;9.27;;;;;;;10.71;100.00;-19445.78;5072895;28;20496;-69
2021/10/26 01:07:59;;;;;;;23.43;10.27;;;;;;;10.66;100.00;-19444.47;5077887;28;20024;-69
2021/10/26 01:10:25;;;;;;;21.67;8.80;;;;;;;10.62;100.00;-19443.41;5076575;28;20285;-70
2021/10/26 01:12:51;;;;;;;20.73;8.80;;;;;;;10.61;100.00;-19443.16;5078059;28;20472;-70
2021/10/26 01:15:16;;;;;;;19.47;9.27;;;;;;;10.59;100.00;-19442.75;5067568;28;20271;-70
2021/10/26 01:17:42;;;;;;;25.07;9.73;;;;;;;10.64;100.00;-19443.94;5077840;28;20028;-70
2021/10/26 01:20:08;;;;;;;21.03;9.50;;;;;;;10.65;100.00;-19444.34;5076773;28;20054;-70
2021/10/26 01:22:39;;;;;;;20.50;9.67;;;;;;;10.59;100.00;-19442.75;5078316;28;20027;-70
2021/10/26 01:25:12;;;;;;;17.73;8.83;;;;;;;10.56;100.00;-19441.97;5077219;28;20086;-70
2021/10/26 01:27:42;;;;;;;21.80;9.10;;;;;;;10.58;100.00;-19442.50;5080936;28;20081;-70
2021/10/26 01:30:10;;;;;;;21.80;9.23;;;;;;;10.53;100.00;-19441.31;5077603;28;20036;-70
2021/10/26 01:32:35;;;;;;;21.30;9.20;;;;;;;10.52;100.00;-19441.03;5081384;28;20231;-70
2021/10/26 01:35:01;;;;;;;19.63;9.47;;;;;;;10.54;100.00;-19441.56;5076727;28;20349;-70
2021/10/26 01:37:31;;;;;;;21.23;9.30;;;;;;;10.60;100.00;-19442.88;5075952;28;20577;-70
2021/10/26 01:39:56;;;;;;;22.87;9.13;;;;;;;10.56;100.00;-19442.09;5073645;28;20517;-70
2021/10/26 01:42:22;;;;;;;19.77;9.10;;;;;;;10.59;100.00;-19442.75;5080980;28;20028;-70
2021/10/26 01:44:48;;;;;;;19.83;8.87;;;;;;;10.61;100.00;-19443.16;5079276;28;20392;-70
2021/10/26 01:47:13;;;;;;;18.60;9.13;;;;;;;10.65;100.00;-19444.19;5081299;28;20023;-70
2021/10/26 01:49:39;;;;;;;19.50;9.17;;;;;;;10.66;100.00;-19444.59;5080462;28;20484;-70
2021/10/26 01:52:05;;;;;;;17.33;8.63;;;;;;;10.64;100.00;-19444.06;5071303;28;20563;-70
2021/10/26 01:54:36;;;;;;;18.37;8.80;;;;;;;10.64;100.00;-19444.06;5079682;28;20032;-70
2021/10/26 01:57:05;;;;;;;20.73;9.20;;;;;;;10.65;100.00;-19444.34;5081082;28;20246;-70
2021/10/26 01:59:31;;;;;;;19.43;9.67;;;;;;;10.65;100.00;-19444.19;5079729;28;20035;-70
2021/10/26 02:01:57;;;;;;;20.47;9.03;;;;;;;10.62;100.00;-19443.41;5080419;28;20020;-70
2021/10/26 02:04:22;;;;;;;21.73;9.70;;;;;;;10.61;100.00;-19443.28;5077203;28;20058;-70
2021/10/26 02:06:48;;;;;;;17.20;8.37;;;;;;;10.62;100.00;-19443.53;5072182;28;20028;-70
2021/10/26 02:09:14;;;;;;;17.53;8.67;;;;;;;10.60;100.00;-19442.88;5068106;28;20491;-70
2021/10/26 02:11:39;;;;;;;20.53;9.33;;;;;;;10.66;100.00;-19444.47;5080740;28;20173;-70
2021/10/26 02:14:05;;;;;;;18.10;8.90;;;;;;;10.65;100.00;-19444.19;5079603;28;20847;-70
2021/10/26 02:16:30;;;;;;;19.80;9.90;;;;;;;10.66;100.00;-19444.47;5076549;28;20093;-70
2021/10/26 02:18:56;;;;;;;20.07;8.87;;;;;;;10.68;100.00;-19445.00;5076133;28;20280;-70
2021/10/26 02:21:21;;;;;;;22.97;9.03;;;;;;;10.67;100.00;-19444.72;5080935;28;20043;-70
2021/10/26 02:23:47;;;;;;;18.27;8.90;;;;;;;10.70;100.00;-19445.66;5079538;28;20028;-70
2021/10/26 02:26:13;;;;;;;21.50;8.27;;;;;;;10.68;100.00;-19445.13;5080445;28;20047;-70
2021/10/26 02:28:38;;;;;;;17.63;8.93;;;;;;;10.66;100.00;-19444.47;5067082;28;20113;-70
2021/10/26 02:31:03;;;;;;;18.03;8.23;;;;;;;10.65;100.00;-19444.19;5076753;28;20036;-70
2021/10/26 02:33:29;;;;;;;21.47;9.73;;;;;;;10.67;100.00;-19444.72;5076263;28;20143;-70
2021/10/26 02:35:55;;;;;;;17.20;8.57;;;;;;;10.73;100.00;-19446.31;5079983;28;20472;-70
2021/10/26 02:38:20;;;;;;;23.13;8.53;;;;;;;10.73;100.00;-19446.44;5078550;28;20075;-70
2021/10/26 02:40:46;;;;;;;17.43;8.47;;;;;;;10.70;100.00;-19445.66;5079096;28;20117;-68
2021/10/26 02:43:11;;;;;;;19.73;9.07;;;;;;;10.74;100.00;-19446.56;5078761;28;20036;-68
2021/10/26 02:45:37;;;;;;;20.80;8.33;;;;;;;10.77;100.00;-19447.38;5079639;28;20295;-69
2021/10/26 02:48:04;;;;;;;18.47;8.63;;;;;;;10.75;100.00;-19446.84;5078969;28;20036;-68
2021/10/26 02:50:30;;;;;;;20.03;8.20;;;;;;;10.75;100.00;-19446.84;5073521;28;20173;-70
2021/10/26 02:52:55;;;;;;;17.67;8.50;;;;;;;10.71;100.00;-19445.91;5074500;28;20032;-70
2021/10/26 02:55:21;;;;;;;16.80;8.10;;;;;;;10.72;100.00;-19446.03;5079459;28;20034;-70
2021/10/26 02:57:47;;;;;;;18.83;9.23;;;;;;;10.69;100.00;-19445.25;5079311;28;20028;-71
2021/10/26 03:00:12;;;;;;;18.33;8.63;;;;;;;10.73;100.00;-19446.44;5079117;28;20023;-70
2021/10/26 03:02:39;;;;;;;18.90;8.57;;;;;;;10.68;100.00;-19445.00;5078437;28;20039;-70
2021/10/26 03:05:06;;;;;;;23.80;9.07;;;;;;;10.66;100.00;-19444.47;5079066;28;20044;-70
2021/10/26 03:07:42;;;;;;;22.30;9.60;;;;;;;10.65;100.00;-19444.19;5080169;28;20123;-70
2021/10/26 03:10:09;;;;;;;19.33;9.27;;;;;;;10.65;100.00;-19444.19;5071233;28;20296;-70
2021/10/26 03:12:35;;;;;;;23.17;9.10;;;;;;;10.68;100.00;-19445.00;5074334;28;20085;-70
2021/10/26 03:15:01;;;;;;;18.30;8.17;;;;;;;10.69;100.00;-19445.25;5080172;28;20028;-70
2021/10/26 03:17:27;;;;;;;21.50;9.13;;;;;;;10.67;100.00;-19444.72;5075959;28;20043;-70
2021/10/26 03:19:52;;;;;;;23.03;9.03;;;;;;;10.76;100.00;-19447.09;5079294;28;20036;-70
2021/10/26 03:22:18;;;;;;;17.77;8.27;;;;;;;10.76;100.00;-19447.09;5078114;28;20470;-70
2021/10/26 03:24:43;;;;;;;22.47;8.73;;;;;;;10.73;100.00;-19446.44;5079688;28;20035;-70
2021/10/26 03:27:09;;;;;;;19.60;8.80;;;;;;;10.73;100.00;-19446.44;5079327;28;20180;-70
2021/10/26 03:29:35;;;;;;;21.07;9.10;;;;;;;10.73;100.00;-19446.44;5079613;28;20143;-70
2021/10/26 03:32:00;;;;;;;21.13;8.40;;;;;;;10.71;100.00;-19445.91;5078396;28;20338;-71
2021/10/26 03:34:26;;;;;;;23.07;9.20;;;;;;;10.74;100.00;-19446.56;5072315;28;20024;-71
2021/10/26 03:36:52;;;;;;;20.93;8.93;;;;;;;10.77;100.00;-19447.38;5079114;28;20436;-70
2021/10/26 03:39:18;;;;;;;22.10;8.53;;;;;;;10.77;100.00;-19447.38;5079254;28;20262;-70
2021/10/26 03:41:43;;;;;;;19.13;8.60;;;;;;;10.77;100.00;-19447.50;5079581;28;20016;-70
2021/10/26 03:44:09;;;;;;;21.93;9.43;;;;;;;10.77;100.00;-19447.38;5079098;28;20530;-70
2021/10/26 03:46:35;;;;;;;20.37;8.37;;;;;;;10.80;100.00;-19448.16;5078255;28;20159;-70
2021/10/26 03:49:02;;;;;;;22.40;8.23;;;;;;;10.75;100.00;-19446.84;5078794;28;20499;-70
2021/10/26 03:51:30;;;;;;;17.97;8.10;;;;;;;10.70;100.00;-19445.66;5078952;28;20024;-69
2021/10/26 03:53:55;;;;;;;22.07;9.20;;;;;;;10.70;100.00;-19445.53;5078289;28;20020;-69
2021/10/26 03:56:21;;;;;;;20.73;8.20;;;;;;;10.69;100.00;-19445.25;5079134;28;20092;-69
2021/10/26 03:58:47;;;;;;;19.40;8.37;;;;;;;10.66;100.00;-19444.47;5076245;28;20028;-70
2021/10/26 04:01:12;;;;;;;26.97;9.43;;;;;;;10.60;100.00;-19442.88;5078090;28;20024;-69
2021/10/26 04:03:38;;;;;;;18.43;8.67;;;;;;;10.52;100.00;-19441.03;5075129;28;20040;-70
2021/10/26 04:06:06;;;;;;;21.27;9.63;;;;;;;10.43;100.00;-19438.56;5072560;28;20597;-70
2021/10/26 04:11:38;;;;;;;20.07;9.00;;;;;;;10.48;100.00;-19440.00;5025185;28;20104;-70
2021/10/26 04:14:04;;;;;;;20.07;9.60;;;;;;;10.54;100.00;-19441.56;5075402;28;20104;-70
2021/10/26 04:16:30;;;;;;;22.87;10.13;;;;;;;10.63;100.00;-19443.81;5077379;28;20509;-70
2021/10/26 04:18:56;;;;;;;22.03;9.83;;;;;;;10.64;100.00;-19443.94;5073997;28;20476;-70
2021/10/26 04:21:21;;;;;;;22.80;8.83;;;;;;;10.66;100.00;-19444.47;5073847;28;20020;-70
2021/10/26 04:23:47;;;;;;;18.97;8.93;;;;;;;10.67;100.00;-19444.72;5073389;28;20123;-70
2021/10/26 04:26:15;;;;;;;24.93;9.47;;;;;;;10.73;100.00;-19446.44;5076130;28;20123;-69
2021/10/26 04:28:41;;;;;;;22.27;9.23;;;;;;;10.72;100.00;-19446.03;5078335;28;20176;-70
2021/10/26 04:31:06;;;;;;;27.77;9.80;;;;;;;10.72;100.00;-19446.19;5078311;28;20059;-70
2021/10/26 04:33:32;;;;;;;22.90;9.30;;;;;;;10.74;100.00;-19446.72;5078020;28;20096;-69
2021/10/26 04:35:58;;;;;;;26.37;8.03;;;;;;;10.77;100.00;-19447.38;5077666;28;20031;-70
2021/10/26 04:38:23;;;;;;;24.27;10.33;;;;;;;10.75;100.00;-19446.84;5070849;28;20512;-70
2021/10/26 04:40:49;;;;;;;24.00;10.07;;;;;;;10.70;100.00;-19445.66;5075630;28;20261;-70
2021/10/26 04:43:17;;;;;;;23.90;9.17;;;;;;;10.67;100.00;-19444.88;5076565;28;20284;-70
2021/10/26 04:45:46;;;;;;;26.63;10.13;;;;;;;10.81;100.00;-19448.41;5071915;28;20625;-70
2021/10/26 04:48:16;;;;;;;22.60;10.03;;;;;;;10.78;100.00;-19447.63;5065537;28;20444;-70
2021/10/26 04:50:43;;;;;;;20.27;9.17;;;;;;;10.70;100.00;-19445.53;5074279;28;20028;-70
2021/10/26 04:53:08;;;;;;;24.80;9.60;;;;;;;10.69;100.00;-19445.38;5078044;28;20063;-70
2021/10/26 04:55:34;;;;;;;27.33;10.03;;;;;;;10.62;100.00;-19443.53;5077226;28;20201;-69
2021/10/26 04:57:59;;;;;;;21.77;9.83;;;;;;;10.64;100.00;-19443.94;5078478;28;20255;-70
2021/10/26 05:00:27;;;;;;;22.60;9.87;;;;;;;10.72;100.00;-19446.03;5078506;28;20056;-70
2021/10/26 05:02:52;;;;;;;25.03;10.07;;;;;;;10.69;100.00;-19445.25;5081869;28;20031;-70
2021/10/26 05:05:18;;;;;;;21.43;9.20;;;;;;;10.73;100.00;-19446.31;5078191;28;20047;-70
2021/10/26 05:07:44;;;;;;;27.20;10.50;;;;;;;10.74;100.00;-19446.56;5082842;28;20197;-70
2021/10/26 05:10:09;;;;;;;29.60;10.17;;;;;;;10.76;100.00;-19447.09;5082228;28;20028;-70
2021/10/26 05:12:35;;;;;;;21.20;8.47;;;;;;;10.79;100.00;-19447.88;5081984;28;20024;-70
2021/10/26 05:15:01;;;;;;;24.03;9.67;;;;;;;10.76;100.00;-19447.22;5082310;28;20032;-69
2021/10/26 05:17:27;;;;;;;22.90;9.53;;;;;;;10.77;100.00;-19447.38;5082500;28;20511;-70
2021/10/26 05:19:54;;;;;;;24.40;9.77;;;;;;;10.77;100.00;-19447.38;5082222;28;20499;-70
2021/10/26 05:22:22;;;;;;;22.90;9.53;;;;;;;10.75;100.00;-19446.84;5081669;28;20483;-70
2021/10/26 05:24:48;;;;;;;26.80;10.10;;;;;;;10.74;100.00;-19446.72;5081234;28;20432;-70
2021/10/26 05:27:13;;;;;;;26.90;10.17;;;;;;;10.66;100.00;-19444.47;5082135;28;20043;-70
2021/10/26 05:29:40;;;;;;;22.10;10.77;;;;;;;10.59;100.00;-19442.63;5082046;28;20034;-69
2021/10/26 05:32:06;;;;;;;24.97;10.50;;;;;;;10.56;100.00;-19442.09;5079795;28;20083;-69
2021/10/26 05:34:34;;;;;;;26.73;10.67;;;;;;;10.54;100.00;-19441.56;5080026;28;20295;-70
2021/10/26 05:37:00;;;;;;;22.43;9.67;;;;;;;10.42;100.00;-19438.41;5082338;28;20652;-70
2021/10/26 05:39:25;;;;;;;24.47;10.03;;;;;;;10.35;100.00;-19436.56;5081568;28;20107;-69
2021/10/26 05:41:51;;;;;;;28.37;10.87;;;;;;;10.41;100.00;-19438.16;5081997;28;20408;-70
2021/10/26 05:44:16;;;;;;;26.60;11.13;;;;;;;10.46;100.00;-19439.34;5080791;28;20040;-70
2021/10/26 05:46:42;;;;;;;25.63;10.03;;;;;;;10.48;100.00;-19439.88;5082017;28;20024;-70
2021/10/26 05:49:07;;;;;;;25.77;10.47;;;;;;;10.54;100.00;-19441.44;5081721;28;20408;-70
2021/10/26 05:51:33;;;;;;;26.27;10.27;;;;;;;10.65;100.00;-19444.19;5081811;28;20107;-69
2021/10/26 05:53:58;;;;;;;30.57;9.53;;;;;;;10.64;100.00;-19444.06;5081590;28;20081;-70
2021/10/26 05:56:24;;;;;;;24.00;10.00;;;;;;;10.64;100.00;-19443.94;5075850;28;20047;-70
2021/10/26 05:58:53;;;;;;;22.73;10.13;;;;;;;10.64;100.00;-19444.06;5079420;28;20020;-70
2021/10/26 06:01:19;;;;;;;25.73;9.93;;;;;;;10.66;100.00;-19444.59;5069693;28;20024;-70
2021/10/26 06:03:44;;;;;;;28.80;9.90;;;;;;;10.63;100.00;-19443.69;5080007;28;20167;-70
2021/10/26 06:06:10;;;;;;;22.53;9.70;;;;;;;10.65;100.00;-19444.19;5080469;28;20107;-70
2021/10/26 06:08:35;;;;;;;27.23;10.23;;;;;;;10.64;100.00;-19443.94;5073449;28;20637;-70
2021/10/26 06:11:06;;;;;;;26.73;9.83;;;;;;;10.63;100.00;-19443.69;5080205;28;20024;-70
2021/10/26 06:13:36;;;;;;;27.43;10.87;;;;;;;10.57;100.00;-19442.38;5079417;28;20031;-70
2021/10/26 06:16:01;;;;;;;25.63;9.70;;;;;;;10.59;100.00;-19442.75;5081173;28;20028;-70
2021/10/26 06:18:27;;;;;;;23.83;9.47;;;;;;;10.68;100.00;-19445.00;5080303;28;20508;-70
2021/10/26 06:20:52;;;;;;;23.40;9.80;;;;;;;10.68;100.00;-19445.00;5080119;28;20086;-70
2021/10/26 06:23:18;;;;;;;21.17;9.07;;;;;;;10.73;100.00;-19446.31;5081093;28;20024;-70
2021/10/26 06:25:43;;;;;;;25.23;10.17;;;;;;;10.77;100.00;-19447.38;5081034;28;20085;-70
2021/10/26 06:28:09;;;;;;;22.63;9.80;;;;;;;10.78;100.00;-19447.63;5081140;28;20095;-70
2021/10/26 06:30:35;;;;;;;23.77;10.33;;;;;;;10.76;100.00;-19447.09;5078289;28;20047;-70
2021/10/26 06:33:00;;;;;;;23.60;9.47;;;;;;;10.79;100.00;-19447.88;5080572;28;20028;-70
2021/10/26 06:35:26;;;;;;;23.50;10.10;;;;;;;10.80;100.00;-19448.16;5080731;28;20024;-70
2021/10/26 06:37:51;;;;;;;24.87;9.93;;;;;;;10.86;100.00;-19449.72;5080764;28;20554;-70
2021/10/26 06:40:18;;;;;;;24.37;9.40;;;;;;;10.82;100.00;-19448.69;5079593;28;20028;-70
2021/10/26 06:42:44;;;;;;;26.07;11.20;;;;;;;10.82;100.00;-19448.69;5080543;28;20161;-70
2021/10/26 06:45:11;;;;;;;23.10;9.30;;;;;;;10.79;100.00;-19447.88;5080497;28;20128;-70
2021/10/26 06:47:37;;;;;;;27.87;10.70;;;;;;;10.80;100.00;-19448.28;5080577;28;20323;-70
2021/10/26 06:50:07;;;;;;;23.83;9.87;;;;;;;10.84;100.00;-19449.22;5080314;28;20377;-70
2021/10/26 06:52:32;;;;;;;21.77;9.87;;;;;;;10.83;100.00;-19449.06;5067560;28;20384;-70
2021/10/26 06:54:58;;;;;;;22.83;9.20;;;;;;;10.88;100.00;-19450.13;5080016;28;20030;-70
2021/10/26 06:57:25;;;;;;;26.83;10.20;;;;;;;10.91;100.00;-19450.91;5080449;28;20028;-70
2021/10/26 06:59:51;;;;;;;22.57;9.57;;;;;;;10.92;100.00;-19451.31;5080488;28;20189;-70
2021/10/26 07:02:16;;;;;;;24.33;10.23;;;;;;;10.97;100.00;-19452.63;5079421;28;20032;-70
2021/10/26 07:04:43;;;;;;;25.97;10.43;;;;;;;11.00;100.00;-19453.28;5079504;28;20667;-70
2021/10/26 07:07:08;;;;;;;22.73;9.33;;;;;;;11.01;100.00;-19453.69;5080096;28;20039;-70
2021/10/26 07:09:34;;;;;;;28.93;10.57;;;;;;;11.01;100.00;-19453.69;5080041;28;20035;-70
2021/10/26 07:11:59;;;;;;;20.93;9.57;;;;;;;11.02;100.00;-19453.94;5080055;28;20039;-70
2021/10/26 07:14:25;;;;;;;26.40;9.77;;;;;;;11.04;100.00;-19454.47;5079631;28;20032;-70
2021/10/26 07:16:51;;;;;;;21.87;9.27;;;;;;;11.07;100.00;-19455.13;5080299;28;20039;-70
2021/10/26 07:19:17;;;;;;;29.23;10.73;;;;;;;11.12;100.00;-19456.44;5080117;28;20020;-70
2021/10/26 07:21:42;;;;;;;28.27;11.73;;;;;;;11.15;100.00;-19457.38;5080128;28;20672;-70
2021/10/26 07:24:09;;;;;;;23.00;9.53;;;;;;;11.21;100.00;-19458.81;5078858;28;20375;-70
2021/10/26 07:26:36;;;;;;;25.63;10.10;;;;;;;11.20;100.00;-19458.41;5076755;28;20024;-69
2021/10/26 07:29:02;;;;;;;24.47;9.67;;;;;;;11.23;100.00;-19459.34;5079865;28;20518;-69
2021/10/26 07:31:28;;;;;;;26.27;9.40;;;;;;;11.30;100.00;-19461.16;5079904;28;20056;-69
2021/10/26 07:33:58;;;;;;;20.20;8.90;;;;;;;11.32;100.00;-19461.56;5079805;28;20048;-70
2021/10/26 07:36:29;;;;;;;21.73;9.40;;;;;;;11.34;100.00;-19462.09;5078432;28;20284;-69
2021/10/26 07:39:01;;;;;;;19.73;8.70;;;;;;;11.38;100.00;-19463.13;5079678;28;20488;-70
2021/10/26 07:41:27;;;;;;;19.92;8.02;;;;;;;11.41;100.00;-19463.94;5079676;28;20035;-69
2021/10/26 07:43:55;;;;;;;21.90;8.63;;;;;;;11.45;100.00;-19465.13;5079810;28;20381;-69
2021/10/26 07:46:21;;;;;;;23.03;9.13;;;;;;;11.49;100.00;-19465.91;5078863;28;20032;-69
2021/10/26 07:48:47;;;;;;;21.83;8.23;;;;;;;11.53;100.00;-19467.09;5072112;28;20079;-70
2021/10/26 07:51:13;;;;;;;20.00;8.30;;;;;;;11.54;100.00;-19467.34;5073260;28;20332;-70
2021/10/26 07:53:39;;;;;;;22.87;8.50;;;;;;;11.53;100.00;-19466.97;5072207;28;20024;-70
2021/10/26 07:56:08;;;;;;;23.87;9.17;;;;;;;11.58;100.00;-19468.41;5079139;28;20043;-70
2021/10/26 07:58:35;;;;;;;19.40;8.93;;;;;;;11.58;100.00;-19468.41;5079679;28;20028;-70
2021/10/26 08:01:01;;;;;;;21.20;8.93;;;;;;;11.67;100.00;-19470.78;5078483;28;20049;-70
2021/10/26 08:03:27;;;;;;;23.27;9.13;;;;;;;11.65;100.00;-19470.13;5079243;28;20024;-70
2021/10/26 08:05:53;;;;;;;23.33;8.70;;;;;;;11.70;100.00;-19471.56;5079105;28;20431;-70
2021/10/26 08:08:19;;;;;;;19.73;8.50;;;;;;;11.75;100.00;-19472.75;5078597;28;20550;-70
2021/10/26 08:10:46;;;;;;;18.93;8.70;;;;;;;11.76;100.00;-19472.88;5079160;28;20047;-69
2021/10/26 08:13:12;;;;;;;24.20;9.23;;;;;;;11.78;100.00;-19473.53;5079441;28;20035;-70
2021/10/26 08:15:38;;;;;;;21.97;9.13;;;;;;;11.74;100.00;-19472.59;5079199;28;20020;-70
2021/10/26 08:18:03;;;;;;;26.57;8.80;;;;;;;11.80;100.00;-19473.94;5079312;28;20408;-70
2021/10/26 08:20:29;;;;;;;19.43;8.80;;;;;;;11.78;100.00;-19473.41;5078464;28;20024;-70
2021/10/26 08:22:55;;;;;;;18.43;8.97;;;;;;;11.86;100.00;-19475.50;5075952;28;20385;-70
2021/10/26 08:25:24;;;;;;;26.57;9.23;;;;;;;12.00;100.00;-19479.31;5078976;28;20065;-69
2021/10/26 08:27:52;;;;;;;20.23;8.17;;;;;;;12.08;100.00;-19481.28;5078693;28;20103;-70
2021/10/26 08:30:30;;;;;;;23.70;9.27;;;;;;;12.11;100.00;-19482.06;5078088;28;20024;-70
2021/10/26 08:33:02;;;;;;;23.27;9.27;;;;;;;12.13;100.00;-19482.59;5078559;28;20077;-70
2021/10/26 08:35:28;;;;;;;22.50;9.35;;;;;;;12.01;100.00;-19479.56;5078202;28;20024;-70
2021/10/26 08:38:06;;;;;;;20.73;7.77;;;;;;;11.92;100.00;-19477.22;5077850;28;20024;-70
2021/10/26 08:40:38;;;;;;;22.00;9.03;;;;;;;11.92;100.00;-19477.22;5078515;28;20065;-70
2021/10/26 08:43:07;;;;;;;24.90;8.07;;;;;;;12.08;100.00;-19481.16;5078106;28;20031;-70
2021/10/26 08:45:34;;;;;;;23.10;8.10;;;;;;;12.17;100.00;-19483.50;5077894;28;20546;-70
2021/10/26 08:48:02;;;;;;;28.50;9.37;;;;;;;12.10;100.00;-19481.81;5078702;28;20380;-70
2021/10/26 08:50:33;;;;;;;22.33;9.60;;;;;;;12.10;100.00;-19481.69;5078354;28;20319;-70
2021/10/26 08:52:59;;;;;;;22.95;9.70;;;;;;;12.02;100.00;-19479.84;5070142;28;20028;-69
2021/10/26 08:55:26;;;;;;;16.53;7.87;;;;;;;12.03;100.00;-19479.97;5078279;28;20522;-69
2021/10/26 08:57:52;;;;;;;23.23;8.97;;;;;;;11.99;100.00;-19479.06;5078875;28;20054;-68
2021/10/26 09:00:18;;;;;;;18.97;7.93;;;;;;;11.98;100.00;-19478.78;5078249;28;20412;-68
2021/10/26 09:02:48;;;;;;;24.47;8.80;;;;;;;11.97;100.00;-19478.38;5078359;28;20023;-68
2021/10/26 09:05:19;;;;;;;22.10;9.33;;;;;;;11.99;100.00;-19478.91;5067356;28;20276;-68
2021/10/26 09:08:09;;;;;;;21.33;8.17;;;;;;;11.97;100.00;-19478.38;5078358;28;20027;-68
2021/10/26 09:10:36;;;;;;;18.80;7.63;;;;;;;11.99;100.00;-19478.91;5078252;28;20388;-68
2021/10/26 09:16:49;;;;;;;20.83;8.10;;;;;;;12.15;100.00;-19483.00;5075951;28;20408;-68
2021/10/26 09:19:20;;;;;;;17.47;6.93;;;;;;;12.14;100.00;-19482.72;5067014;28;20287;-68
2021/10/26 09:22:15;;;;;;;18.03;7.80;;;;;;;12.22;100.00;-19484.97;5078373;28;20021;-68
2021/10/26 09:25:01;;;;;;;16.73;8.03;;;;;;;12.28;100.00;-19486.41;4995508;28;20370;-68
2021/10/26 09:27:28;;;;;;;17.53;7.77;;;;;;;12.35;100.00;-19488.09;4994739;28;20644;-68
2021/10/26 09:29:59;;;;;;;15.47;6.87;;;;;;;12.42;100.00;-19489.94;4995022;28;20129;-68
2021/10/26 09:32:37;;;;;;;18.20;6.70;;;;;;;12.28;100.00;-19486.53;4995480;28;20669;-68
2021/10/26 09:35:08;;;;;;;17.77;6.57;;;;;;;12.30;100.00;-19486.94;4995414;28;20269;-68
2021/10/26 09:37:39;;;;;;;17.77;6.60;;;;;;;12.36;100.00;-19488.38;4995593;28;20032;-68
2021/10/26 09:40:07;;;;;;;20.13;6.77;;;;;;;12.45;100.00;-19490.75;4993426;28;20695;-68
2021/10/26 09:42:53;;;;;;;14.17;6.53;;;;;;;12.44;100.00;-19490.47;4995219;28;20104;-68
2021/10/26 09:45:30;;;;;;;14.63;6.23;;;;;;;12.43;100.00;-19490.22;4995238;28;20187;-68
2021/10/26 09:47:58;;;;;;;17.23;6.73;;;;;;;12.32;100.00;-19487.47;4997036;28;20042;-68
2021/10/26 09:50:34;;;;;;;15.57;6.33;;;;;;;12.21;100.00;-19484.56;4998278;28;20125;-68
2021/10/26 09:53:06;;;;;;;19.17;8.40;;;;;;;12.18;100.00;-19483.91;4998729;28;20038;-68
2021/10/26 09:55:42;;;;;;;21.15;6.70;;;;;;;12.27;100.00;-19486.28;4998426;28;20189;-68
2021/10/26 09:58:15;;;;;;;18.83;6.77;;;;;;;12.33;100.00;-19487.84;4994631;28;20042;-68
2021/10/26 10:00:45;;;;;;;22.30;7.43;;;;;;;12.45;100.00;-19490.75;5023632;28;20039;-68
2021/10/26 10:03:21;;;;;;;18.40;7.50;;;;;;;12.58;100.00;-19494.16;5081665;28;20405;-68
2021/10/26 10:06:16;;;;;;;23.00;8.43;;;;;;;12.56;100.00;-19493.63;5080127;28;20279;-68
2021/10/26 10:08:42;;;;;;;18.83;6.97;;;;;;;12.63;100.00;-19495.47;5063721;28;20393;-68
2021/10/26 10:11:21;;;;;;;22.07;7.47;;;;;;;12.65;100.00;-19496.00;5081397;28;20020;-68
2021/10/26 10:13:53;;;;;;;19.60;7.57;;;;;;;12.80;100.00;-19499.78;5078442;28;20103;-68
2021/10/26 10:16:23;;;;;;;16.00;6.40;;;;;;;12.79;100.00;-19499.66;5080977;28;20031;-68
2021/10/26 10:18:50;;;;;;;17.40;7.23;;;;;;;12.82;100.00;-19500.44;5082349;28;20365;-68
2021/10/26 10:21:20;;;;;;;21.27;7.50;;;;;;;12.96;100.00;-19503.88;5081245;28;20435;-68
2021/10/26 10:23:47;;;;;;;13.70;6.17;;;;;;;12.86;100.00;-19501.50;5081352;28;20082;-68
2021/10/26 10:26:25;;;;;;;14.83;6.67;;;;;;;12.99;100.00;-19504.66;5070817;28;20101;-68
2021/10/26 10:28:52;;;;;;;18.80;7.77;;;;;;;12.94;100.00;-19503.34;5068511;28;20315;-68
2021/10/26 10:31:20;;;;;;;18.33;6.83;;;;;;;13.01;100.00;-19505.31;5080270;28;20087;-68
2021/10/26 10:33:46;;;;;;;23.93;7.20;;;;;;;12.83;100.00;-19500.72;5081061;28;20108;-68
2021/10/26 10:36:15;;;;;;;16.40;6.30;;;;;;;12.90;100.00;-19502.56;5080744;28;20040;-68
2021/10/26 10:38:41;;;;;;;13.80;6.37;;;;;;;12.86;100.00;-19501.50;5075774;28;20103;-68
2021/10/26 10:41:43;;;;;;;14.90;6.87;;;;;;;13.15;100.00;-19508.97;5080848;28;20327;-68
2021/10/26 10:44:41;;;;;;;14.50;6.40;;;;;;;13.44;100.00;-19516.31;4997648;28;20034;-68
2021/10/26 10:47:28;;;;;;;16.87;6.13;;;;;;;13.18;100.00;-19509.63;4956215;28;20041;-68
2021/10/26 10:49:53;;;;;;;14.37;6.73;;;;;;;13.19;100.00;-19510.03;4999228;28;20255;-68
2021/10/26 10:52:21;;;;;;;16.73;6.50;;;;;;;13.57;100.00;-19519.59;4996188;28;20120;-68
2021/10/26 10:54:54;;;;;;;15.80;6.33;;;;;;;13.93;100.00;-19529.06;4986586;28;20391;-68
2021/10/26 10:57:29;;;;;;;17.37;6.67;;;;;;;14.08;100.00;-19532.97;4996390;28;20181;-68
2021/10/26 11:00:00;;;;;;;21.57;6.77;;;;;;;13.92;100.00;-19528.66;4987946;28;20053;-68
2021/10/26 11:02:43;;;;;;;13.07;5.80;;;;;;;14.02;100.00;-19531.41;4997690;28;20279;-68
2021/10/26 11:05:39;;;;;;;16.13;5.80;;;;;;;14.15;100.00;-19534.56;4989097;28;20141;-68
2021/10/26 11:08:12;;;;;;;16.57;5.63;;;;;;;14.06;100.00;-19532.47;4997675;28;20065;-68
2021/10/26 11:11:10;;;;;;;14.37;6.10;;;;;;;13.96;100.00;-19529.84;4997060;28;20034;-68
2021/10/26 11:13:36;;;;;;;12.73;6.10;;;;;;;13.98;100.00;-19530.22;4955139;28;20387;-68
2021/10/26 11:16:08;;;;;;;11.87;5.27;;;;;;;14.33;100.00;-19539.28;4980361;28;20100;-68
2021/10/26 11:18:45;;;;;;;13.63;5.75;;;;;;;14.05;100.00;-19532.06;5025859;28;20196;-68
2021/10/26 11:21:35;;;;;;;20.53;5.83;;;;;;;13.91;100.00;-19528.53;5059612;28;20048;-68